sensor_id;sensor_type;location;lat;lon;timestamp;pressure;altitude;pressure_sealevel;temperature;humidity
74327;BME280;62745;51.060;13.786;2023-02-28T00:00:00;101691.22;;;-0.07;82.48
74327;BME280;62745;51.060;13.786;2023-02-28T00:02:26;101689.16;;;-0.16;83.84
74327;BME280;62745;51.060;13.786;2023-02-28T00:04:51;101683.38;;;-0.23;83.93
74327;BME280;62745;51.060;13.786;2023-02-28T00:07:26;101687.97;;;-0.26;84.02
74327;BME280;62745;51.060;13.786;2023-02-28T00:09:52;101689.16;;;-0.16;83.12
74327;BME280;62745;51.060;13.786;2023-02-28T00:12:17;101680.94;;;-0.26;83.37
74327;BME280;62745;51.060;13.786;2023-02-28T00:14:43;101678.66;;;-0.16;84.00
74327;BME280;62745;51.060;13.786;2023-02-28T00:17:08;101660.97;;;-0.28;83.48
74327;BME280;62745;51.060;13.786;2023-02-28T00:19:33;101678.75;;;-0.04;83.31
74327;BME280;62745;51.060;13.786;2023-02-28T00:21:58;101673.13;;;-0.12;82.86
74327;BME280;62745;51.060;13.786;2023-02-28T00:24:24;101663.31;;;-0.24;82.69
74327;BME280;62745;51.060;13.786;2023-02-28T00:26:49;101675.47;;;-0.07;82.21
74327;BME280;62745;51.060;13.786;2023-02-28T00:29:14;101675.94;;;-0.15;82.17
74327;BME280;62745;51.060;13.786;2023-02-28T00:31:39;101671.63;;;-0.16;82.59
74327;BME280;62745;51.060;13.786;2023-02-28T00:34:05;101669.84;;;-0.15;82.80
74327;BME280;62745;51.060;13.786;2023-02-28T00:36:30;101668.16;;;-0.32;82.85
74327;BME280;62745;51.060;13.786;2023-02-28T00:38:55;101679.56;;;-0.17;83.44
74327;BME280;62745;51.060;13.786;2023-02-28T00:41:21;101673.88;;;0.20;82.14
74327;BME280;62745;51.060;13.786;2023-02-28T00:43:46;101677.25;;;0.22;81.60
74327;BME280;62745;51.060;13.786;2023-02-28T00:46:11;101684.72;;;0.14;81.59
74327;BME280;62745;51.060;13.786;2023-02-28T00:48:37;101682.59;;;0.21;81.35
74327;BME280;62745;51.060;13.786;2023-02-28T00:51:02;101683.91;;;-0.02;81.30
74327;BME280;62745;51.060;13.786;2023-02-28T00:53:28;101689.13;;;0.14;81.35
74327;BME280;62745;51.060;13.786;2023-02-28T00:55:53;101687.00;;;-0.10;82.16
74327;BME280;62745;51.060;13.786;2023-02-28T00:58:18;101691.69;;;-0.15;82.20
74327;BME280;62745;51.060;13.786;2023-02-28T01:00:43;101676.47;;;0.06;81.59
74327;BME280;62745;51.060;13.786;2023-02-28T01:03:15;101676.59;;;0.19;81.11
74327;BME280;62745;51.060;13.786;2023-02-28T01:05:40;101679.03;;;0.22;80.75
74327;BME280;62745;51.060;13.786;2023-02-28T01:08:06;101683.34;;;0.23;81.43
74327;BME280;62745;51.060;13.786;2023-02-28T01:10:32;101684.91;;;0.11;82.01
74327;BME280;62745;51.060;13.786;2023-02-28T01:12:57;101678.56;;;0.29;81.74
74327;BME280;62745;51.060;13.786;2023-02-28T01:15:22;101673.16;;;0.47;81.54
74327;BME280;62745;51.060;13.786;2023-02-28T01:17:48;101680.13;;;0.76;81.24
74327;BME280;62745;51.060;13.786;2023-02-28T01:20:13;101675.31;;;0.97;80.29
74327;BME280;62745;51.060;13.786;2023-02-28T01:22:39;101675.91;;;1.02;78.78
74327;BME280;62745;51.060;13.786;2023-02-28T01:25:04;101678.53;;;0.74;80.60
74327;BME280;62745;51.060;13.786;2023-02-28T01:27:29;101682.19;;;0.57;80.77
74327;BME280;62745;51.060;13.786;2023-02-28T01:29:55;101673.91;;;0.35;83.03
74327;BME280;62745;51.060;13.786;2023-02-28T01:32:20;101673.16;;;0.47;81.36
74327;BME280;62745;51.060;13.786;2023-02-28T01:34:45;101667.88;;;0.33;82.35
74327;BME280;62745;51.060;13.786;2023-02-28T01:37:10;101672.13;;;0.78;80.28
74327;BME280;62745;51.060;13.786;2023-02-28T01:39:35;101667.91;;;0.75;80.09
74327;BME280;62745;51.060;13.786;2023-02-28T01:42:01;101669.22;;;0.40;81.41
74327;BME280;62745;51.060;13.786;2023-02-28T01:45:03;101674.47;;;0.54;80.51
74327;BME280;62745;51.060;13.786;2023-02-28T01:47:32;101672.06;;;0.07;82.25
74327;BME280;62745;51.060;13.786;2023-02-28T01:50:01;101670.03;;;0.26;82.31
74327;BME280;62745;51.060;13.786;2023-02-28T01:52:27;101671.84;;;0.40;81.42
74327;BME280;62745;51.060;13.786;2023-02-28T01:54:55;101666.75;;;0.22;82.20
74327;BME280;62745;51.060;13.786;2023-02-28T01:57:25;101669.00;;;-0.02;83.66
74327;BME280;62745;51.060;13.786;2023-02-28T01:59:59;101666.09;;;0.19;82.63
74327;BME280;62745;51.060;13.786;2023-02-28T02:02:29;101671.72;;;-0.03;83.21
74327;BME280;62745;51.060;13.786;2023-02-28T02:04:58;101665.25;;;-0.12;83.26
74327;BME280;62745;51.060;13.786;2023-02-28T02:07:29;101666.00;;;0.20;82.87
74327;BME280;62745;51.060;13.786;2023-02-28T02:10:58;101666.47;;;0.41;82.47
74327;BME280;62745;51.060;13.786;2023-02-28T02:13:14;101669.47;;;0.49;81.67
74327;BME280;62745;51.060;13.786;2023-02-28T02:18:57;101655.09;;;0.26;81.97
74327;BME280;62745;51.060;13.786;2023-02-28T02:21:54;101661.03;;;0.44;81.34
74327;BME280;62745;51.060;13.786;2023-02-28T02:24:57;101657.72;;;0.26;82.54
74327;BME280;62745;51.060;13.786;2023-02-28T02:27:57;101655.59;;;-0.11;83.80
74327;BME280;62745;51.060;13.786;2023-02-28T02:30:33;101650.06;;;0.38;82.87
74327;BME280;62745;51.060;13.786;2023-02-28T02:35:56;101654.94;;;0.58;81.03
74327;BME280;62745;51.060;13.786;2023-02-28T02:47:08;101650.69;;;0.27;81.43
74327;BME280;62745;51.060;13.786;2023-02-28T02:49:37;101654.34;;;0.24;81.72
74327;BME280;62745;51.060;13.786;2023-02-28T02:52:07;101659.91;;;0.48;80.89
74327;BME280;62745;51.060;13.786;2023-02-28T02:54:42;101655.81;;;0.14;82.06
74327;BME280;62745;51.060;13.786;2023-02-28T02:57:22;101662.22;;;0.24;81.03
74327;BME280;62745;51.060;13.786;2023-02-28T02:59:49;101664.53;;;0.01;82.25
74327;BME280;62745;51.060;13.786;2023-02-28T03:02:16;101658.75;;;0.24;82.17
74327;BME280;62745;51.060;13.786;2023-02-28T03:04:48;101662.25;;;0.39;82.07
74327;BME280;62745;51.060;13.786;2023-02-28T03:07:15;101658.09;;;0.20;82.15
74327;BME280;62745;51.060;13.786;2023-02-28T03:09:49;101665.63;;;0.26;81.73
74327;BME280;62745;51.060;13.786;2023-02-28T03:12:15;101666.47;;;0.27;81.27
74327;BME280;62745;51.060;13.786;2023-02-28T03:15:01;101666.34;;;0.14;81.62
74327;BME280;62745;51.060;13.786;2023-02-28T03:20:26;101663.16;;;-0.37;83.12
74327;BME280;62745;51.060;13.786;2023-02-28T03:25:54;101658.84;;;-0.38;83.45
74327;BME280;62745;51.060;13.786;2023-02-28T03:28:41;101659.44;;;-0.03;82.93
74327;BME280;62745;51.060;13.786;2023-02-28T03:31:16;101650.47;;;-0.28;83.82
74327;BME280;62745;51.060;13.786;2023-02-28T03:33:54;101654.22;;;-0.64;84.11
74327;BME280;62745;51.060;13.786;2023-02-28T03:36:26;101663.19;;;-0.68;85.24
74327;BME280;62745;51.060;13.786;2023-02-28T03:39:07;101657.09;;;-0.53;85.57
74327;BME280;62745;51.060;13.786;2023-02-28T03:41:58;101651.53;;;-0.63;83.96
74327;BME280;62745;51.060;13.786;2023-02-28T03:44:30;101663.34;;;-0.87;86.20
74327;BME280;62745;51.060;13.786;2023-02-28T03:47:11;101659.38;;;-0.47;84.76
74327;BME280;62745;51.060;13.786;2023-02-28T03:49:46;101663.19;;;-0.52;84.78
74327;BME280;62745;51.060;13.786;2023-02-28T03:52:16;101662.50;;;-0.40;85.52
74327;BME280;62745;51.060;13.786;2023-02-28T03:54:48;101665.81;;;-0.68;85.70
74327;BME280;62745;51.060;13.786;2023-02-28T04:00:08;101671.75;;;-0.80;85.75
74327;BME280;62745;51.060;13.786;2023-02-28T04:02:35;101671.00;;;-0.82;85.80
74327;BME280;62745;51.060;13.786;2023-02-28T04:05:01;101680.00;;;-1.04;87.48
74327;BME280;62745;51.060;13.786;2023-02-28T04:07:29;101677.69;;;-1.26;87.53
74327;BME280;62745;51.060;13.786;2023-02-28T04:09:55;101678.16;;;-1.02;87.96
74327;BME280;62745;51.060;13.786;2023-02-28T04:12:21;101684.75;;;-1.10;88.10
74327;BME280;62745;51.060;13.786;2023-02-28T04:14:48;101684.59;;;-0.92;86.30
74327;BME280;62745;51.060;13.786;2023-02-28T04:17:14;101686.56;;;-0.79;86.62
74327;BME280;62745;51.060;13.786;2023-02-28T04:19:39;101685.19;;;-0.71;85.94
74327;BME280;62745;51.060;13.786;2023-02-28T04:22:04;101690.06;;;-1.12;86.91
74327;BME280;62745;51.060;13.786;2023-02-28T04:24:30;101682.63;;;-1.04;87.68
74327;BME280;62745;51.060;13.786;2023-02-28T04:26:56;101689.94;;;-0.93;87.05
74327;BME280;62745;51.060;13.786;2023-02-28T04:29:31;101697.50;;;-1.20;87.07
74327;BME280;62745;51.060;13.786;2023-02-28T04:32:00;101688.69;;;-1.52;88.35
74327;BME280;62745;51.060;13.786;2023-02-28T04:34:27;101701.00;;;-1.37;88.62
74327;BME280;62745;51.060;13.786;2023-02-28T04:36:54;101698.72;;;-1.60;88.96
74327;BME280;62745;51.060;13.786;2023-02-28T04:39:24;101700.19;;;-1.89;90.45
74327;BME280;62745;51.060;13.786;2023-02-28T04:41:50;101704.97;;;-1.97;91.19
74327;BME280;62745;51.060;13.786;2023-02-28T04:44:15;101701.69;;;-1.84;90.86
74327;BME280;62745;51.060;13.786;2023-02-28T04:46:41;101697.38;;;-1.52;89.72
74327;BME280;62745;51.060;13.786;2023-02-28T04:49:07;101698.94;;;-1.47;90.03
74327;BME280;62745;51.060;13.786;2023-02-28T04:51:33;101697.56;;;-1.72;90.54
74327;BME280;62745;51.060;13.786;2023-02-28T04:53:58;101703.34;;;-1.15;88.92
74327;BME280;62745;51.060;13.786;2023-02-28T04:56:23;101694.94;;;-1.72;89.27
74327;BME280;62745;51.060;13.786;2023-02-28T04:58:49;101690.03;;;-1.95;90.23
74327;BME280;62745;51.060;13.786;2023-02-28T05:03:48;101704.13;;;-1.63;91.08
74327;BME280;62745;51.060;13.786;2023-02-28T05:06:14;101694.25;;;-1.75;90.68
74327;BME280;62745;51.060;13.786;2023-02-28T05:08:40;101695.78;;;-2.06;90.94
74327;BME280;62745;51.060;13.786;2023-02-28T05:11:21;101707.59;;;-1.97;91.00
74327;BME280;62745;51.060;13.786;2023-02-28T05:13:49;101703.19;;;-1.62;90.43
74327;BME280;62745;51.060;13.786;2023-02-28T05:16:15;101704.50;;;-1.88;90.84
74327;BME280;62745;51.060;13.786;2023-02-28T05:18:40;101703.97;;;-1.60;89.62
74327;BME280;62745;51.060;13.786;2023-02-28T05:21:06;101712.00;;;-1.80;90.10
74327;BME280;62745;51.060;13.786;2023-02-28T05:23:31;101713.53;;;-1.76;89.97
74327;BME280;62745;51.060;13.786;2023-02-28T05:25:57;101716.53;;;-2.01;90.49
74327;BME280;62745;51.060;13.786;2023-02-28T05:28:22;101721.44;;;-1.43;90.08
74327;BME280;62745;51.060;13.786;2023-02-28T05:30:48;101710.31;;;-1.82;89.24
74327;BME280;62745;51.060;13.786;2023-02-28T05:33:13;101717.53;;;-1.87;90.74
74327;BME280;62745;51.060;13.786;2023-02-28T05:35:39;101715.59;;;-2.18;90.54
74327;BME280;62745;51.060;13.786;2023-02-28T05:38:05;101720.78;;;-2.35;91.45
74327;BME280;62745;51.060;13.786;2023-02-28T05:40:30;101715.22;;;-1.93;91.41
74327;BME280;62745;51.060;13.786;2023-02-28T05:42:56;101718.28;;;-2.02;91.72
74327;BME280;62745;51.060;13.786;2023-02-28T05:45:21;101721.53;;;-1.79;90.19
74327;BME280;62745;51.060;13.786;2023-02-28T05:47:46;101715.97;;;-1.91;90.24
74327;BME280;62745;51.060;13.786;2023-02-28T05:50:11;101722.66;;;-2.02;90.42
74327;BME280;62745;51.060;13.786;2023-02-28T05:52:37;101721.91;;;-1.53;90.10
74327;BME280;62745;51.060;13.786;2023-02-28T05:55:03;101724.41;;;-1.16;87.15
74327;BME280;62745;51.060;13.786;2023-02-28T05:57:28;101721.88;;;-1.02;86.17
74327;BME280;62745;51.060;13.786;2023-02-28T05:59:53;101727.16;;;-0.86;85.38
74327;BME280;62745;51.060;13.786;2023-02-28T06:02:19;101729.03;;;-0.73;84.95
74327;BME280;62745;51.060;13.786;2023-02-28T06:04:45;101729.47;;;-0.80;84.76
74327;BME280;62745;51.060;13.786;2023-02-28T06:07:10;101730.72;;;-0.87;84.47
74327;BME280;62745;51.060;13.786;2023-02-28T06:09:36;101733.53;;;-0.75;84.97
74327;BME280;62745;51.060;13.786;2023-02-28T06:12:04;101738.38;;;-0.67;84.12
74327;BME280;62745;51.060;13.786;2023-02-28T06:14:31;101740.72;;;-0.78;84.16
74327;BME280;62745;51.060;13.786;2023-02-28T06:16:57;101733.97;;;-0.82;84.46
74327;BME280;62745;51.060;13.786;2023-02-28T06:19:22;101739.72;;;-0.76;83.97
74327;BME280;62745;51.060;13.786;2023-02-28T06:21:51;101749.00;;;-0.86;84.54
74327;BME280;62745;51.060;13.786;2023-02-28T06:24:18;101748.78;;;-0.81;83.62
74327;BME280;62745;51.060;13.786;2023-02-28T06:26:43;101758.72;;;-0.88;83.35
74327;BME280;62745;51.060;13.786;2023-02-28T06:29:09;101754.78;;;-1.12;83.83
74327;BME280;62745;51.060;13.786;2023-02-28T06:31:34;101757.50;;;-1.14;84.46
74327;BME280;62745;51.060;13.786;2023-02-28T06:34:00;101756.06;;;-1.04;84.41
74327;BME280;62745;51.060;13.786;2023-02-28T06:36:25;101762.56;;;-1.11;84.57
74327;BME280;62745;51.060;13.786;2023-02-28T06:38:51;101764.84;;;-1.05;84.66
74327;BME280;62745;51.060;13.786;2023-02-28T06:41:21;101775.25;;;-1.03;84.23
74327;BME280;62745;51.060;13.786;2023-02-28T06:43:46;101777.59;;;-0.97;84.06
74327;BME280;62745;51.060;13.786;2023-02-28T06:46:13;101774.28;;;-1.01;83.46
74327;BME280;62745;51.060;13.786;2023-02-28T06:48:40;101787.75;;;-0.91;83.79
74327;BME280;62745;51.060;13.786;2023-02-28T06:51:12;101789.09;;;-1.00;83.02
74327;BME280;62745;51.060;13.786;2023-02-28T06:53:39;101785.03;;;-0.89;83.68
74327;BME280;62745;51.060;13.786;2023-02-28T06:56:06;101787.34;;;-0.68;83.00
74327;BME280;62745;51.060;13.786;2023-02-28T06:58:33;101790.88;;;-0.67;82.33
74327;BME280;62745;51.060;13.786;2023-02-28T07:00:59;101802.88;;;-0.63;81.99
74327;BME280;62745;51.060;13.786;2023-02-28T07:03:24;101794.09;;;-0.46;81.98
74327;BME280;62745;51.060;13.786;2023-02-28T07:05:49;101802.56;;;-0.41;82.21
74327;BME280;62745;51.060;13.786;2023-02-28T07:08:14;101792.34;;;-0.14;81.74
74327;BME280;62745;51.060;13.786;2023-02-28T07:10:40;101791.72;;;-0.04;80.67
74327;BME280;62745;51.060;13.786;2023-02-28T07:13:07;101803.22;;;0.10;82.13
74327;BME280;62745;51.060;13.786;2023-02-28T07:15:33;101799.63;;;0.26;81.56
74327;BME280;62745;51.060;13.786;2023-02-28T07:17:58;101800.72;;;0.38;80.06
74327;BME280;62745;51.060;13.786;2023-02-28T07:20:24;101802.97;;;0.14;79.75
74327;BME280;62745;51.060;13.786;2023-02-28T07:22:50;101805.91;;;0.40;79.01
74327;BME280;62745;51.060;13.786;2023-02-28T07:25:22;101796.19;;;0.56;76.78
74327;BME280;62745;51.060;13.786;2023-02-28T07:27:48;101787.88;;;0.48;76.86
74327;BME280;62745;51.060;13.786;2023-02-28T07:30:13;101791.09;;;0.53;76.43
74327;BME280;62745;51.060;13.786;2023-02-28T07:32:39;101799.78;;;0.69;77.10
74327;BME280;62745;51.060;13.786;2023-02-28T07:35:04;101792.47;;;0.74;76.89
74327;BME280;62745;51.060;13.786;2023-02-28T07:37:30;101793.59;;;0.70;76.71
74327;BME280;62745;51.060;13.786;2023-02-28T07:39:56;101799.19;;;0.64;76.01
74327;BME280;62745;51.060;13.786;2023-02-28T07:42:21;101798.84;;;0.70;76.15
74327;BME280;62745;51.060;13.786;2023-02-28T07:44:47;101796.16;;;0.86;75.78
74327;BME280;62745;51.060;13.786;2023-02-28T07:47:12;101789.69;;;0.92;75.50
74327;BME280;62745;51.060;13.786;2023-02-28T07:49:38;101798.41;;;0.92;75.69
74327;BME280;62745;51.060;13.786;2023-02-28T07:52:04;101796.66;;;1.07;74.38
74327;BME280;62745;51.060;13.786;2023-02-28T07:54:31;101795.72;;;1.22;74.60
74327;BME280;62745;51.060;13.786;2023-02-28T07:56:57;101803.31;;;1.41;73.15
74327;BME280;62745;51.060;13.786;2023-02-28T07:59:22;101808.09;;;1.48;73.96
74327;BME280;62745;51.060;13.786;2023-02-28T08:01:47;101802.16;;;1.73;72.29
74327;BME280;62745;51.060;13.786;2023-02-28T08:04:15;101801.72;;;1.94;71.13
74327;BME280;62745;51.060;13.786;2023-02-28T08:06:41;101801.41;;;1.98;71.06
74327;BME280;62745;51.060;13.786;2023-02-28T08:09:06;101805.06;;;2.10;69.86
74327;BME280;62745;51.060;13.786;2023-02-28T08:11:32;101800.78;;;2.22;70.97
74327;BME280;62745;51.060;13.786;2023-02-28T08:13:57;101802.84;;;2.17;71.05
74327;BME280;62745;51.060;13.786;2023-02-28T08:16:23;101799.22;;;2.32;70.56
74327;BME280;62745;51.060;13.786;2023-02-28T08:18:51;101803.16;;;2.39;69.92
74327;BME280;62745;51.060;13.786;2023-02-28T08:21:18;101806.94;;;2.35;68.12
74327;BME280;62745;51.060;13.786;2023-02-28T08:23:45;101800.78;;;2.22;68.38
74327;BME280;62745;51.060;13.786;2023-02-28T08:26:11;101797.84;;;2.26;67.83
74327;BME280;62745;51.060;13.786;2023-02-28T08:28:36;101800.75;;;2.36;68.18
74327;BME280;62745;51.060;13.786;2023-02-28T08:31:07;101800.19;;;2.31;68.24
74327;BME280;62745;51.060;13.786;2023-02-28T08:33:32;101805.50;;;2.44;70.44
74327;BME280;62745;51.060;13.786;2023-02-28T08:35:58;101804.34;;;2.48;69.52
74327;BME280;62745;51.060;13.786;2023-02-28T08:38:23;101803.22;;;2.64;69.07
74327;BME280;62745;51.060;13.786;2023-02-28T08:40:49;101808.31;;;2.80;67.01
74327;BME280;62745;51.060;13.786;2023-02-28T08:43:14;101802.69;;;2.85;67.30
74327;BME280;62745;51.060;13.786;2023-02-28T08:45:39;101805.47;;;2.96;66.19
74327;BME280;62745;51.060;13.786;2023-02-28T08:48:05;101816.03;;;2.96;65.37
74327;BME280;62745;51.060;13.786;2023-02-28T08:50:30;101814.97;;;2.86;63.95
74327;BME280;62745;51.060;13.786;2023-02-28T08:52:55;101807.97;;;2.85;65.68
74327;BME280;62745;51.060;13.786;2023-02-28T08:55:21;101812.53;;;2.95;64.26
74327;BME280;62745;51.060;13.786;2023-02-28T08:57:46;101807.59;;;2.91;64.02
74327;BME280;62745;51.060;13.786;2023-02-28T09:00:12;101805.06;;;2.89;64.06
74327;BME280;62745;51.060;13.786;2023-02-28T09:02:39;101804.09;;;3.16;63.41
74327;BME280;62745;51.060;13.786;2023-02-28T09:05:05;101811.38;;;3.38;63.14
74327;BME280;62745;51.060;13.786;2023-02-28T09:07:30;101806.63;;;3.30;61.85
74327;BME280;62745;51.060;13.786;2023-02-28T09:09:55;101810.81;;;3.58;61.86
74327;BME280;62745;51.060;13.786;2023-02-28T09:12:26;101806.56;;;3.68;61.21
74327;BME280;62745;51.060;13.786;2023-02-28T09:14:52;101806.09;;;3.87;60.18
74327;BME280;62745;51.060;13.786;2023-02-28T09:17:17;101809.44;;;3.65;61.35
74327;BME280;62745;51.060;13.786;2023-02-28T09:19:43;101804.81;;;3.56;60.85
74327;BME280;62745;51.060;13.786;2023-02-28T09:22:09;101802.41;;;3.89;59.92
74327;BME280;62745;51.060;13.786;2023-02-28T09:24:36;101807.81;;;3.88;60.26
74327;BME280;62745;51.060;13.786;2023-02-28T09:27:02;101800.97;;;3.97;60.60
74327;BME280;62745;51.060;13.786;2023-02-28T09:29:27;101798.75;;;4.03;59.78
74327;BME280;62745;51.060;13.786;2023-02-28T09:31:52;101805.94;;;4.25;60.13
74327;BME280;62745;51.060;13.786;2023-02-28T09:34:18;101795.94;;;4.52;60.89
74327;BME280;62745;51.060;13.786;2023-02-28T09:36:43;101789.06;;;4.39;58.22
74327;BME280;62745;51.060;13.786;2023-02-28T09:39:09;101796.16;;;4.14;55.43
74327;BME280;62745;51.060;13.786;2023-02-28T09:41:40;101786.06;;;4.43;55.34
74327;BME280;62745;51.060;13.786;2023-02-28T09:44:17;101796.28;;;4.72;57.75
74327;BME280;62745;51.060;13.786;2023-02-28T09:46:48;101782.31;;;4.81;53.89
74327;BME280;62745;51.060;13.786;2023-02-28T09:49:20;101786.47;;;5.07;54.58
74327;BME280;62745;51.060;13.786;2023-02-28T09:51:56;101790.19;;;5.16;52.82
74327;BME280;62745;51.060;13.786;2023-02-28T09:54:26;101783.84;;;5.41;51.65
74327;BME280;62745;51.060;13.786;2023-02-28T09:59:42;101784.84;;;5.83;49.88
74327;BME280;62745;51.060;13.786;2023-02-28T10:02:40;101784.63;;;5.97;49.10
74327;BME280;62745;51.060;13.786;2023-02-28T10:05:15;101782.94;;;5.96;49.29
74327;BME280;62745;51.060;13.786;2023-02-28T10:10:44;101791.72;;;6.40;51.60
74327;BME280;62745;51.060;13.786;2023-02-28T10:13:22;101783.25;;;6.14;49.25
74327;BME280;62745;51.060;13.786;2023-02-28T10:15:53;101781.69;;;6.12;49.02
74327;BME280;62745;51.060;13.786;2023-02-28T10:18:31;101788.09;;;6.62;49.05
74327;BME280;62745;51.060;13.786;2023-02-28T10:20:59;101787.09;;;6.74;48.89
74327;BME280;62745;51.060;13.786;2023-02-28T10:23:28;101788.28;;;6.17;47.51
74327;BME280;62745;51.060;13.786;2023-02-28T10:26:00;101782.28;;;6.15;48.70
74327;BME280;62745;51.060;13.786;2023-02-28T10:28:28;101787.78;;;5.91;50.44
74327;BME280;62745;51.060;13.786;2023-02-28T10:30:54;101784.41;;;5.67;51.72
74327;BME280;62745;51.060;13.786;2023-02-28T10:33:24;101793.94;;;5.25;52.72
74327;BME280;62745;51.060;13.786;2023-02-28T10:35:50;101786.59;;;5.39;51.92
74327;BME280;62745;51.060;13.786;2023-02-28T10:38:23;101788.97;;;5.65;50.53
74327;BME280;62745;51.060;13.786;2023-02-28T10:40:50;101785.97;;;5.92;49.85
74327;BME280;62745;51.060;13.786;2023-02-28T10:45:54;101795.84;;;5.79;53.32
74327;BME280;62745;51.060;13.786;2023-02-28T10:48:26;101789.69;;;5.89;52.78
74327;BME280;62745;51.060;13.786;2023-02-28T10:50:53;101786.78;;;5.70;53.07
74327;BME280;62745;51.060;13.786;2023-02-28T10:58:24;101766.34;;;6.47;51.23
74327;BME280;62745;51.060;13.786;2023-02-28T11:00:50;101759.09;;;6.17;50.43
74327;BME280;62745;51.060;13.786;2023-02-28T11:03:45;101764.41;;;6.17;51.67
74327;BME280;62745;51.060;13.786;2023-02-28T11:06:21;101767.22;;;6.04;50.95
74327;BME280;62745;51.060;13.786;2023-02-28T11:08:57;101775.06;;;6.06;50.10
74327;BME280;62745;51.060;13.786;2023-02-28T11:11:25;101770.53;;;5.74;50.07
74327;BME280;62745;51.060;13.786;2023-02-28T11:13:56;101765.69;;;5.80;51.34
74327;BME280;62745;51.060;13.786;2023-02-28T11:16:31;101763.72;;;6.04;52.04
74327;BME280;62745;51.060;13.786;2023-02-28T11:18:58;101760.66;;;5.77;50.42
74327;BME280;62745;51.060;13.786;2023-02-28T11:21:28;101751.81;;;5.87;50.38
74327;BME280;62745;51.060;13.786;2023-02-28T11:24:00;101755.03;;;6.13;50.98
74327;BME280;62745;51.060;13.786;2023-02-28T11:26:40;101747.94;;;6.34;49.86
74327;BME280;62745;51.060;13.786;2023-02-28T11:29:17;101749.53;;;6.88;48.60
74327;BME280;62745;51.060;13.786;2023-02-28T11:32:00;101748.69;;;6.88;49.60
74327;BME280;62745;51.060;13.786;2023-02-28T11:34:27;101736.25;;;6.88;48.63
74327;BME280;62745;51.060;13.786;2023-02-28T11:36:56;101734.72;;;7.16;47.42
74327;BME280;62745;51.060;13.786;2023-02-28T11:39:22;101737.22;;;7.08;48.69
74327;BME280;62745;51.060;13.786;2023-02-28T11:51:12;101731.84;;;7.29;45.11
74327;BME280;62745;51.060;13.786;2023-02-28T11:56:50;101728.63;;;7.85;45.51
74327;BME280;62745;51.060;13.786;2023-02-28T11:59:07;101724.03;;;8.45;43.64
74327;BME280;62745;51.060;13.786;2023-02-28T12:07:31;101715.50;;;8.88;40.83
74327;BME280;62745;51.060;13.786;2023-02-28T12:12:38;101719.41;;;8.37;44.73
74327;BME280;62745;51.060;13.786;2023-02-28T12:20:34;101720.34;;;9.40;41.23
74327;BME280;62745;51.060;13.786;2023-02-28T12:28:56;101715.72;;;9.87;42.21
74327;BME280;62745;51.060;13.786;2023-02-28T12:31:35;101719.38;;;9.41;41.36
74327;BME280;62745;51.060;13.786;2023-02-28T12:34:06;101717.44;;;9.33;43.09
74327;BME280;62745;51.060;13.786;2023-02-28T12:36:35;101721.34;;;9.11;42.67
74327;BME280;62745;51.060;13.786;2023-02-28T12:39:10;101716.56;;;9.05;43.07
74327;BME280;62745;51.060;13.786;2023-02-28T12:41:59;101726.19;;;9.25;41.57
74327;BME280;62745;51.060;13.786;2023-02-28T12:44:34;101715.47;;;9.35;40.40
74327;BME280;62745;51.060;13.786;2023-02-28T12:47:05;101720.06;;;9.43;41.45
74327;BME280;62745;51.060;13.786;2023-02-28T12:49:41;101717.38;;;9.15;41.67
74327;BME280;62745;51.060;13.786;2023-02-28T12:52:07;101713.94;;;8.29;44.53
74327;BME280;62745;51.060;13.786;2023-02-28T12:54:49;101711.41;;;8.08;44.71
74327;BME280;62745;51.060;13.786;2023-02-28T12:57:25;101711.81;;;7.84;44.24
74327;BME280;62745;51.060;13.786;2023-02-28T12:59:58;101708.81;;;7.39;45.70
74327;BME280;62745;51.060;13.786;2023-02-28T13:08:35;101703.16;;;8.97;42.02
74327;BME280;62745;51.060;13.786;2023-02-28T13:10:55;101703.16;;;7.92;43.70
74327;BME280;62745;51.060;13.786;2023-02-28T13:13:24;101698.94;;;8.48;42.53
74327;BME280;62745;51.060;13.786;2023-02-28T13:16:08;101702.16;;;8.22;42.66
74327;BME280;62745;51.060;13.786;2023-02-28T13:21:21;101702.31;;;8.96;41.29
74327;BME280;62745;51.060;13.786;2023-02-28T13:26:23;101699.75;;;9.32;40.85
74327;BME280;62745;51.060;13.786;2023-02-28T13:31:13;101703.41;;;9.58;41.79
74327;BME280;62745;51.060;13.786;2023-02-28T13:38:43;101693.63;;;10.30;38.23
74327;BME280;62745;51.060;13.786;2023-02-28T13:44:03;101688.53;;;9.74;40.02
74327;BME280;62745;51.060;13.786;2023-02-28T13:46:29;101683.13;;;9.20;40.45
74327;BME280;62745;51.060;13.786;2023-02-28T13:48:55;101673.78;;;9.79;39.48
74327;BME280;62745;51.060;13.786;2023-02-28T13:51:42;101680.09;;;10.32;38.61
74327;BME280;62745;51.060;13.786;2023-02-28T13:57:24;101673.34;;;10.97;36.94
74327;BME280;62745;51.060;13.786;2023-02-28T14:05:34;101672.56;;;11.63;35.25
74327;BME280;62745;51.060;13.786;2023-02-28T14:08:05;101671.19;;;11.43;34.75
74327;BME280;62745;51.060;13.786;2023-02-28T14:10:43;101655.38;;;10.55;35.37
74327;BME280;62745;51.060;13.786;2023-02-28T14:13:13;101669.34;;;9.70;37.22
74327;BME280;62745;51.060;13.786;2023-02-28T14:16:02;101668.75;;;9.94;37.03
74327;BME280;62745;51.060;13.786;2023-02-28T14:18:31;101655.69;;;9.10;38.72
74327;BME280;62745;51.060;13.786;2023-02-28T14:21:11;101654.50;;;8.95;40.35
74327;BME280;62745;51.060;13.786;2023-02-28T14:24:01;101651.72;;;9.14;40.74
74327;BME280;62745;51.060;13.786;2023-02-28T14:26:41;101653.72;;;9.12;39.85
74327;BME280;62745;51.060;13.786;2023-02-28T14:37:28;101642.38;;;7.97;42.53
74327;BME280;62745;51.060;13.786;2023-02-28T14:39:55;101639.28;;;7.63;43.75
74327;BME280;62745;51.060;13.786;2023-02-28T14:42:33;101644.22;;;7.18;44.18
74327;BME280;62745;51.060;13.786;2023-02-28T14:44:59;101644.09;;;6.79;45.61